sensor_id;sensor_type;location;lat;lon;timestamp;temperature;humidity
38500;DHT22;24269;51.894;4.622;2022-12-18T00:01:47;-1.90;99.90
38500;DHT22;24269;51.894;4.622;2022-12-18T00:04:21;-1.90;99.90
38500;DHT22;24269;51.894;4.622;2022-12-18T00:06:48;-2.00;99.90
38500;DHT22;24269;51.894;4.622;2022-12-18T00:09:17;-2.00;99.90
38500;DHT22;24269;51.894;4.622;2022-12-18T00:11:42;-2.00;99.90
38500;DHT22;24269;51.894;4.622;2022-12-18T00:14:10;-2.00;99.90
38500;DHT22;24269;51.894;4.622;2022-12-18T00:16:36;-2.00;99.90
38500;DHT22;24269;51.894;4.622;2022-12-18T00:19:03;-2.10;99.90
38500;DHT22;24269;51.894;4.622;2022-12-18T00:21:30;-2.10;99.90
38500;DHT22;24269;51.894;4.622;2022-12-18T00:23:56;-2.10;99.90
38500;DHT22;24269;51.894;4.622;2022-12-18T00:26:30;-2.10;99.90
38500;DHT22;24269;51.894;4.622;2022-12-18T00:29:07;-2.10;99.90
38500;DHT22;24269;51.894;4.622;2022-12-18T00:31:33;-2.10;99.90
38500;DHT22;24269;51.894;4.622;2022-12-18T00:33:59;-2.10;99.90
38500;DHT22;24269;51.894;4.622;2022-12-18T00:36:31;-2.10;99.90
38500;DHT22;24269;51.894;4.622;2022-12-18T00:38:58;-2.20;99.90
38500;DHT22;24269;51.894;4.622;2022-12-18T00:41:25;-2.20;99.90
38500;DHT22;24269;51.894;4.622;2022-12-18T00:44:11;-2.10;99.90
38500;DHT22;24269;51.894;4.622;2022-12-18T00:46:37;-2.20;99.90
38500;DHT22;24269;51.894;4.622;2022-12-18T00:49:03;-2.20;99.90
38500;DHT22;24269;51.894;4.622;2022-12-18T00:51:29;-2.20;99.90
38500;DHT22;24269;51.894;4.622;2022-12-18T00:53:54;-2.20;99.90
38500;DHT22;24269;51.894;4.622;2022-12-18T00:56:20;-2.30;99.90
38500;DHT22;24269;51.894;4.622;2022-12-18T00:58:46;-2.20;99.90
38500;DHT22;24269;51.894;4.622;2022-12-18T01:01:11;-2.20;99.90
38500;DHT22;24269;51.894;4.622;2022-12-18T01:03:38;-2.20;99.90
38500;DHT22;24269;51.894;4.622;2022-12-18T01:06:11;-2.20;99.90
38500;DHT22;24269;51.894;4.622;2022-12-18T01:08:38;-2.20;99.90
38500;DHT22;24269;51.894;4.622;2022-12-18T01:11:12;-2.30;99.90
38500;DHT22;24269;51.894;4.622;2022-12-18T01:13:38;-2.20;99.90
38500;DHT22;24269;51.894;4.622;2022-12-18T01:16:05;-2.30;99.90
38500;DHT22;24269;51.894;4.622;2022-12-18T01:18:31;-2.40;99.90
38500;DHT22;24269;51.894;4.622;2022-12-18T01:20:57;-2.40;99.90
38500;DHT22;24269;51.894;4.622;2022-12-18T01:23:22;-2.50;99.90
38500;DHT22;24269;51.894;4.622;2022-12-18T01:25:48;-2.50;99.90
38500;DHT22;24269;51.894;4.622;2022-12-18T01:28:13;-2.60;99.90
38500;DHT22;24269;51.894;4.622;2022-12-18T01:30:39;-2.60;99.90
38500;DHT22;24269;51.894;4.622;2022-12-18T01:33:05;-2.50;99.90
38500;DHT22;24269;51.894;4.622;2022-12-18T01:35:40;-2.50;99.90
38500;DHT22;24269;51.894;4.622;2022-12-18T01:38:06;-2.50;99.90
38500;DHT22;24269;51.894;4.622;2022-12-18T01:40:32;-2.50;99.90
38500;DHT22;24269;51.894;4.622;2022-12-18T01:43:00;-2.60;99.90
38500;DHT22;24269;51.894;4.622;2022-12-18T01:45:28;-2.50;99.90
38500;DHT22;24269;51.894;4.622;2022-12-18T01:48:03;-2.50;99.90
38500;DHT22;24269;51.894;4.622;2022-12-18T01:50:39;-2.50;99.90
38500;DHT22;24269;51.894;4.622;2022-12-18T01:53:21;-2.50;99.90
38500;DHT22;24269;51.894;4.622;2022-12-18T01:55:51;-2.50;99.90
38500;DHT22;24269;51.894;4.622;2022-12-18T01:58:18;-2.60;99.90
38500;DHT22;24269;51.894;4.622;2022-12-18T02:00:44;-2.60;99.90
38500;DHT22;24269;51.894;4.622;2022-12-18T02:03:10;-2.60;99.90
38500;DHT22;24269;51.894;4.622;2022-12-18T02:06:03;-2.70;99.90
38500;DHT22;24269;51.894;4.622;2022-12-18T02:11:52;-2.80;99.90
38500;DHT22;24269;51.894;4.622;2022-12-18T02:14:13;-2.70;99.90
38500;DHT22;24269;51.894;4.622;2022-12-18T02:17:04;-2.70;99.90
38500;DHT22;24269;51.894;4.622;2022-12-18T02:28:15;-2.80;99.90
38500;DHT22;24269;51.894;4.622;2022-12-18T02:30:44;-2.80;99.90
38500;DHT22;24269;51.894;4.622;2022-12-18T02:33:15;-2.80;99.90
38500;DHT22;24269;51.894;4.622;2022-12-18T02:35:42;-2.90;99.90
38500;DHT22;24269;51.894;4.622;2022-12-18T02:38:09;-2.90;99.90
38500;DHT22;24269;51.894;4.622;2022-12-18T02:40:37;-3.00;99.90
38500;DHT22;24269;51.894;4.622;2022-12-18T02:43:12;-3.00;99.90
38500;DHT22;24269;51.894;4.622;2022-12-18T02:45:53;-3.10;99.90
38500;DHT22;24269;51.894;4.622;2022-12-18T02:48:26;-3.20;99.90
38500;DHT22;24269;51.894;4.622;2022-12-18T02:51:08;-3.10;99.90
38500;DHT22;24269;51.894;4.622;2022-12-18T02:53:43;-3.10;99.90
38500;DHT22;24269;51.894;4.622;2022-12-18T02:58:57;-3.10;99.90
38500;DHT22;24269;51.894;4.622;2022-12-18T03:01:49;-3.10;99.90
38500;DHT22;24269;51.894;4.622;2022-12-18T03:06:50;-3.10;99.90
38500;DHT22;24269;51.894;4.622;2022-12-18T03:09:29;-3.10;99.90
38500;DHT22;24269;51.894;4.622;2022-12-18T03:12:02;-3.20;99.90
38500;DHT22;24269;51.894;4.622;2022-12-18T03:17:26;-3.30;99.90
38500;DHT22;24269;51.894;4.622;2022-12-18T03:19:54;-3.30;99.90
38500;DHT22;24269;51.894;4.622;2022-12-18T03:22:23;-3.40;99.90
38500;DHT22;24269;51.894;4.622;2022-12-18T03:24:52;-3.30;99.90
38500;DHT22;24269;51.894;4.622;2022-12-18T03:27:20;-3.40;99.90
38500;DHT22;24269;51.894;4.622;2022-12-18T03:29:51;-3.40;99.90
38500;DHT22;24269;51.894;4.622;2022-12-18T03:32:30;-3.40;99.90
38500;DHT22;24269;51.894;4.622;2022-12-18T03:34:59;-3.50;99.90
38500;DHT22;24269;51.894;4.622;2022-12-18T03:37:28;-3.50;99.90
38500;DHT22;24269;51.894;4.622;2022-12-18T03:39:53;-3.50;99.90
38500;DHT22;24269;51.894;4.622;2022-12-18T03:47:48;-3.70;99.90
38500;DHT22;24269;51.894;4.622;2022-12-18T03:50:20;-3.70;99.90
38500;DHT22;24269;51.894;4.622;2022-12-18T03:53:00;-3.70;99.90
38500;DHT22;24269;51.894;4.622;2022-12-18T03:55:33;-3.70;99.90
38500;DHT22;24269;51.894;4.622;2022-12-18T03:58:01;-3.80;99.90
38500;DHT22;24269;51.894;4.622;2022-12-18T04:00:29;-3.80;99.90
38500;DHT22;24269;51.894;4.622;2022-12-18T04:02:57;-3.90;99.90
38500;DHT22;24269;51.894;4.622;2022-12-18T04:05:25;-4.00;99.90
38500;DHT22;24269;51.894;4.622;2022-12-18T04:07:56;-4.00;99.90
38500;DHT22;24269;51.894;4.622;2022-12-18T04:10:22;-4.00;99.90
38500;DHT22;24269;51.894;4.622;2022-12-18T04:12:48;-4.10;99.90
38500;DHT22;24269;51.894;4.622;2022-12-18T04:15:16;-4.10;99.90
38500;DHT22;24269;51.894;4.622;2022-12-18T04:17:51;-4.10;99.90
38500;DHT22;24269;51.894;4.622;2022-12-18T04:20:17;-4.10;99.90
38500;DHT22;24269;51.894;4.622;2022-12-18T04:22:43;-4.10;99.90
38500;DHT22;24269;51.894;4.622;2022-12-18T04:25:12;-4.10;99.90
38500;DHT22;24269;51.894;4.622;2022-12-18T04:27:38;-4.10;99.90
38500;DHT22;24269;51.894;4.622;2022-12-18T04:30:04;-4.10;99.90
38500;DHT22;24269;51.894;4.622;2022-12-18T04:32:30;-4.20;99.90
38500;DHT22;24269;51.894;4.622;2022-12-18T04:34:56;-4.20;99.90
38500;DHT22;24269;51.894;4.622;2022-12-18T04:37:22;-4.20;99.90
38500;DHT22;24269;51.894;4.622;2022-12-18T04:39:47;-4.20;99.90
38500;DHT22;24269;51.894;4.622;2022-12-18T04:42:16;-4.20;99.90
38500;DHT22;24269;51.894;4.622;2022-12-18T04:44:42;-4.30;99.90
38500;DHT22;24269;51.894;4.622;2022-12-18T04:47:12;-4.30;99.90
38500;DHT22;24269;51.894;4.622;2022-12-18T04:49:37;-4.30;99.90
38500;DHT22;24269;51.894;4.622;2022-12-18T04:52:03;-4.30;99.90
38500;DHT22;24269;51.894;4.622;2022-12-18T04:54:28;-4.40;99.90
38500;DHT22;24269;51.894;4.622;2022-12-18T04:56:54;-4.30;99.90
38500;DHT22;24269;51.894;4.622;2022-12-18T04:59:20;-4.30;99.90
38500;DHT22;24269;51.894;4.622;2022-12-18T05:01:45;-4.30;99.90
38500;DHT22;24269;51.894;4.622;2022-12-18T05:04:11;-4.30;99.90
38500;DHT22;24269;51.894;4.622;2022-12-18T05:06:36;-4.30;99.90
38500;DHT22;24269;51.894;4.622;2022-12-18T05:09:02;-4.30;99.90
38500;DHT22;24269;51.894;4.622;2022-12-18T05:11:28;-4.30;99.90
38500;DHT22;24269;51.894;4.622;2022-12-18T05:13:53;-4.30;99.90
38500;DHT22;24269;51.894;4.622;2022-12-18T05:16:19;-4.30;99.90
38500;DHT22;24269;51.894;4.622;2022-12-18T05:18:44;-4.20;99.90
38500;DHT22;24269;51.894;4.622;2022-12-18T05:21:10;-4.30;99.90
38500;DHT22;24269;51.894;4.622;2022-12-18T05:23:36;-4.30;99.90
38500;DHT22;24269;51.894;4.622;2022-12-18T05:26:05;-4.30;99.90
38500;DHT22;24269;51.894;4.622;2022-12-18T05:28:32;-4.30;99.90
38500;DHT22;24269;51.894;4.622;2022-12-18T05:30:59;-4.30;99.90
38500;DHT22;24269;51.894;4.622;2022-12-18T05:33:28;-4.30;99.90
38500;DHT22;24269;51.894;4.622;2022-12-18T05:35:56;-4.30;99.90
38500;DHT22;24269;51.894;4.622;2022-12-18T05:38:24;-4.30;99.90
38500;DHT22;24269;51.894;4.622;2022-12-18T05:40:52;-4.30;99.90
38500;DHT22;24269;51.894;4.622;2022-12-18T05:43:19;-4.30;99.90
38500;DHT22;24269;51.894;4.622;2022-12-18T05:45:50;-4.20;99.90
38500;DHT22;24269;51.894;4.622;2022-12-18T05:48:16;-4.20;99.90
38500;DHT22;24269;51.894;4.622;2022-12-18T05:50:44;-4.20;99.90
38500;DHT22;24269;51.894;4.622;2022-12-18T05:53:14;-4.20;99.90
38500;DHT22;24269;51.894;4.622;2022-12-18T05:55:41;-4.20;99.90
38500;DHT22;24269;51.894;4.622;2022-12-18T05:58:08;-4.30;99.90
38500;DHT22;24269;51.894;4.622;2022-12-18T06:00:37;-4.30;99.90
38500;DHT22;24269;51.894;4.622;2022-12-18T06:03:05;-4.30;99.90
38500;DHT22;24269;51.894;4.622;2022-12-18T06:05:35;-4.30;99.90
38500;DHT22;24269;51.894;4.622;2022-12-18T06:08:01;-4.40;99.90
38500;DHT22;24269;51.894;4.622;2022-12-18T06:10:27;-4.40;99.90
38500;DHT22;24269;51.894;4.622;2022-12-18T06:12:52;-4.50;99.90
38500;DHT22;24269;51.894;4.622;2022-12-18T06:15:18;-4.40;99.90
38500;DHT22;24269;51.894;4.622;2022-12-18T06:17:43;-4.50;99.90
38500;DHT22;24269;51.894;4.622;2022-12-18T06:20:09;-4.50;99.90
38500;DHT22;24269;51.894;4.622;2022-12-18T06:22:35;-4.50;99.90
38500;DHT22;24269;51.894;4.622;2022-12-18T06:25:01;-4.50;99.90
38500;DHT22;24269;51.894;4.622;2022-12-18T06:27:26;-4.60;99.90
38500;DHT22;24269;51.894;4.622;2022-12-18T06:29:52;-4.50;99.90
38500;DHT22;24269;51.894;4.622;2022-12-18T06:32:17;-4.50;99.90
38500;DHT22;24269;51.894;4.622;2022-12-18T06:34:43;-4.60;99.90
38500;DHT22;24269;51.894;4.622;2022-12-18T06:37:08;-4.60;99.90
38500;DHT22;24269;51.894;4.622;2022-12-18T06:39:34;-4.50;99.90
38500;DHT22;24269;51.894;4.622;2022-12-18T06:42:00;-4.50;99.90
38500;DHT22;24269;51.894;4.622;2022-12-18T06:44:26;-4.50;99.90
38500;DHT22;24269;51.894;4.622;2022-12-18T06:46:52;-4.50;99.90
38500;DHT22;24269;51.894;4.622;2022-12-18T06:49:17;-4.60;99.90
38500;DHT22;24269;51.894;4.622;2022-12-18T06:51:43;-4.60;99.90
38500;DHT22;24269;51.894;4.622;2022-12-18T06:54:08;-4.60;99.90
38500;DHT22;24269;51.894;4.622;2022-12-18T06:56:34;-4.60;99.90
38500;DHT22;24269;51.894;4.622;2022-12-18T06:59:00;-4.60;99.90
38500;DHT22;24269;51.894;4.622;2022-12-18T07:01:26;-4.70;99.90
38500;DHT22;24269;51.894;4.622;2022-12-18T07:03:56;-4.60;99.90
38500;DHT22;24269;51.894;4.622;2022-12-18T07:06:24;-4.70;99.90
38500;DHT22;24269;51.894;4.622;2022-12-18T07:08:51;-4.70;99.90
38500;DHT22;24269;51.894;4.622;2022-12-18T07:11:17;-4.70;99.90
38500;DHT22;24269;51.894;4.622;2022-12-18T07:13:43;-4.70;99.90
38500;DHT22;24269;51.894;4.622;2022-12-18T07:16:11;-4.70;99.90
38500;DHT22;24269;51.894;4.622;2022-12-18T07:18:37;-4.70;99.90
38500;DHT22;24269;51.894;4.622;2022-12-18T07:21:08;-4.80;99.90
38500;DHT22;24269;51.894;4.622;2022-12-18T07:23:35;-4.80;99.90
38500;DHT22;24269;51.894;4.622;2022-12-18T07:26:06;-4.80;99.90
38500;DHT22;24269;51.894;4.622;2022-12-18T07:28:32;-4.70;99.90
38500;DHT22;24269;51.894;4.622;2022-12-18T07:31:03;-4.70;99.90
38500;DHT22;24269;51.894;4.622;2022-12-18T07:33:28;-4.70;99.90
38500;DHT22;24269;51.894;4.622;2022-12-18T07:35:54;-4.70;99.90
38500;DHT22;24269;51.894;4.622;2022-12-18T07:38:20;-4.70;99.90
38500;DHT22;24269;51.894;4.622;2022-12-18T07:40:45;-4.70;99.90
38500;DHT22;24269;51.894;4.622;2022-12-18T07:43:11;-4.60;99.90
38500;DHT22;24269;51.894;4.622;2022-12-18T07:45:37;-4.60;99.90
38500;DHT22;24269;51.894;4.622;2022-12-18T07:48:02;-4.60;99.90
38500;DHT22;24269;51.894;4.622;2022-12-18T07:50:28;-4.60;99.90
38500;DHT22;24269;51.894;4.622;2022-12-18T07:52:54;-4.50;99.90
38500;DHT22;24269;51.894;4.622;2022-12-18T07:55:19;-4.50;99.90
38500;DHT22;24269;51.894;4.622;2022-12-18T07:57:45;-4.60;99.90
38500;DHT22;24269;51.894;4.622;2022-12-18T08:00:13;-4.60;99.90
38500;DHT22;24269;51.894;4.622;2022-12-18T08:02:39;-4.70;99.90
38500;DHT22;24269;51.894;4.622;2022-12-18T08:05:05;-4.60;99.90
38500;DHT22;24269;51.894;4.622;2022-12-18T08:07:31;-4.60;99.90
38500;DHT22;24269;51.894;4.622;2022-12-18T08:09:56;-4.60;99.90
38500;DHT22;24269;51.894;4.622;2022-12-18T08:12:22;-4.50;99.90
38500;DHT22;24269;51.894;4.622;2022-12-18T08:14:48;-4.50;99.90
38500;DHT22;24269;51.894;4.622;2022-12-18T08:17:14;-4.50;99.90
38500;DHT22;24269;51.894;4.622;2022-12-18T08:19:39;-4.50;99.90
38500;DHT22;24269;51.894;4.622;2022-12-18T08:22:05;-4.40;99.90
38500;DHT22;24269;51.894;4.622;2022-12-18T08:24:30;-4.40;99.90
38500;DHT22;24269;51.894;4.622;2022-12-18T08:26:56;-4.40;99.90
38500;DHT22;24269;51.894;4.622;2022-12-18T08:29:22;-4.40;99.90
38500;DHT22;24269;51.894;4.622;2022-12-18T08:31:48;-4.40;99.90
38500;DHT22;24269;51.894;4.622;2022-12-18T08:34:15;-4.30;99.90
38500;DHT22;24269;51.894;4.622;2022-12-18T08:36:41;-4.20;99.90
38500;DHT22;24269;51.894;4.622;2022-12-18T08:39:07;-4.20;99.90
38500;DHT22;24269;51.894;4.622;2022-12-18T08:41:32;-4.10;99.90
38500;DHT22;24269;51.894;4.622;2022-12-18T08:43:58;-4.10;99.90
38500;DHT22;24269;51.894;4.622;2022-12-18T08:46:44;-4.10;99.90
38500;DHT22;24269;51.894;4.622;2022-12-18T08:49:10;-4.00;99.90
38500;DHT22;24269;51.894;4.622;2022-12-18T08:51:37;-4.00;99.90
38500;DHT22;24269;51.894;4.622;2022-12-18T08:54:04;-4.00;99.90
38500;DHT22;24269;51.894;4.622;2022-12-18T08:56:30;-4.00;99.90
38500;DHT22;24269;51.894;4.622;2022-12-18T08:58:56;-3.90;99.90
38500;DHT22;24269;51.894;4.622;2022-12-18T09:01:22;-3.80;99.90
38500;DHT22;24269;51.894;4.622;2022-12-18T09:03:49;-3.70;99.90
38500;DHT22;24269;51.894;4.622;2022-12-18T09:06:19;-3.70;99.90
38500;DHT22;24269;51.894;4.622;2022-12-18T09:08:45;-3.60;99.90
38500;DHT22;24269;51.894;4.622;2022-12-18T09:11:22;-3.60;99.90
38500;DHT22;24269;51.894;4.622;2022-12-18T09:13:49;-3.60;99.90
38500;DHT22;24269;51.894;4.622;2022-12-18T09:16:15;-3.60;99.90
38500;DHT22;24269;51.894;4.622;2022-12-18T09:18:41;-3.50;99.90
38500;DHT22;24269;51.894;4.622;2022-12-18T09:21:12;-3.50;99.90
38500;DHT22;24269;51.894;4.622;2022-12-18T09:23:38;-3.40;99.90
38500;DHT22;24269;51.894;4.622;2022-12-18T09:26:04;-3.40;99.90
38500;DHT22;24269;51.894;4.622;2022-12-18T09:28:30;-3.40;99.90
38500;DHT22;24269;51.894;4.622;2022-12-18T09:30:56;-3.30;99.90
38500;DHT22;24269;51.894;4.622;2022-12-18T09:33:22;-3.20;99.90
38500;DHT22;24269;51.894;4.622;2022-12-18T09:35:48;-3.20;99.90
38500;DHT22;24269;51.894;4.622;2022-12-18T09:38:18;-3.10;99.90
38500;DHT22;24269;51.894;4.622;2022-12-18T09:40:50;-3.10;99.90
38500;DHT22;24269;51.894;4.622;2022-12-18T09:43:28;-3.00;99.90
38500;DHT22;24269;51.894;4.622;2022-12-18T09:46:04;-3.00;99.90
38500;DHT22;24269;51.894;4.622;2022-12-18T09:48:35;-2.90;99.90
38500;DHT22;24269;51.894;4.622;2022-12-18T09:51:42;-2.80;99.90
38500;DHT22;24269;51.894;4.622;2022-12-18T09:54:17;-2.80;99.90
38500;DHT22;24269;51.894;4.622;2022-12-18T09:56:44;-2.70;99.90
38500;DHT22;24269;51.894;4.622;2022-12-18T10:01:44;-2.70;99.90
38500;DHT22;24269;51.894;4.622;2022-12-18T10:04:10;-2.60;99.90
38500;DHT22;24269;51.894;4.622;2022-12-18T10:06:55;-2.60;99.90
38500;DHT22;24269;51.894;4.622;2022-12-18T10:09:32;-2.50;99.90
38500;DHT22;24269;51.894;4.622;2022-12-18T10:12:16;-2.40;99.90
38500;DHT22;24269;51.894;4.622;2022-12-18T10:15:07;-2.40;99.90
38500;DHT22;24269;51.894;4.622;2022-12-18T10:17:57;-2.30;99.90
38500;DHT22;24269;51.894;4.622;2022-12-18T10:20:45;-2.30;99.90
38500;DHT22;24269;51.894;4.622;2022-12-18T10:28:19;-2.30;99.90
38500;DHT22;24269;51.894;4.622;2022-12-18T10:30:45;-2.20;99.90
38500;DHT22;24269;51.894;4.622;2022-12-18T10:33:30;-2.10;99.90
38500;DHT22;24269;51.894;4.622;2022-12-18T10:35:57;-2.10;99.90
38500;DHT22;24269;51.894;4.622;2022-12-18T10:38:25;-2.00;99.90
38500;DHT22;24269;51.894;4.622;2022-12-18T10:40:56;-1.90;99.90
38500;DHT22;24269;51.894;4.622;2022-12-18T10:43:25;-1.90;99.90
38500;DHT22;24269;51.894;4.622;2022-12-18T10:46:21;-1.90;99.90
38500;DHT22;24269;51.894;4.622;2022-12-18T10:54:21;-1.80;99.90
38500;DHT22;24269;51.894;4.622;2022-12-18T10:56:48;-1.70;99.90
38500;DHT22;24269;51.894;4.622;2022-12-18T10:59:16;-1.80;99.90
38500;DHT22;24269;51.894;4.622;2022-12-18T11:04:33;-1.60;99.90
38500;DHT22;24269;51.894;4.622;2022-12-18T11:07:08;-1.60;99.90
38500;DHT22;24269;51.894;4.622;2022-12-18T11:09:35;-1.50;99.90
38500;DHT22;24269;51.894;4.622;2022-12-18T11:12:08;-1.50;99.90
38500;DHT22;24269;51.894;4.622;2022-12-18T11:14:49;-1.40;99.90
38500;DHT22;24269;51.894;4.622;2022-12-18T11:17:19;-1.40;99.90
38500;DHT22;24269;51.894;4.622;2022-12-18T11:19:59;-1.40;99.90
38500;DHT22;24269;51.894;4.622;2022-12-18T11:22:29;-1.30;99.90
38500;DHT22;24269;51.894;4.622;2022-12-18T11:27:26;-1.20;99.90
38500;DHT22;24269;51.894;4.622;2022-12-18T11:30:20;-1.10;99.90
38500;DHT22;24269;51.894;4.622;2022-12-18T11:33:10;-1.20;99.90
38500;DHT22;24269;51.894;4.622;2022-12-18T11:38:21;-1.10;99.90
38500;DHT22;24269;51.894;4.622;2022-12-18T11:40:56;-1.10;99.90
38500;DHT22;24269;51.894;4.622;2022-12-18T11:43:45;-1.10;99.90
38500;DHT22;24269;51.894;4.622;2022-12-18T11:46:36;-1.00;99.90
38500;DHT22;24269;51.894;4.622;2022-12-18T11:49:25;-1.00;99.90
38500;DHT22;24269;51.894;4.622;2022-12-18T11:51:58;-1.00;99.90
38500;DHT22;24269;51.894;4.622;2022-12-18T11:54:25;-0.90;99.90
38500;DHT22;24269;51.894;4.622;2022-12-18T11:56:58;-0.90;99.90
38500;DHT22;24269;51.894;4.622;2022-12-18T12:07:41;-1.00;99.90
38500;DHT22;24269;51.894;4.622;2022-12-18T12:10:34;-0.90;99.90
38500;DHT22;24269;51.894;4.622;2022-12-18T12:13:20;-0.90;99.90
38500;DHT22;24269;51.894;4.622;2022-12-18T12:19:06;-0.90;99.90
38500;DHT22;24269;51.894;4.622;2022-12-18T12:21:40;-0.80;99.90
38500;DHT22;24269;51.894;4.622;2022-12-18T12:29:50;-0.80;99.90
38500;DHT22;24269;51.894;4.622;2022-12-18T12:38:11;-0.70;99.90
38500;DHT22;24269;51.894;4.622;2022-12-18T12:40:52;-0.70;99.90
38500;DHT22;24269;51.894;4.622;2022-12-18T12:43:27;-0.80;99.90
38500;DHT22;24269;51.894;4.622;2022-12-18T12:46:06;-0.70;99.90
38500;DHT22;24269;51.894;4.622;2022-12-18T12:48:37;-0.70;99.90
38500;DHT22;24269;51.894;4.622;2022-12-18T12:51:18;-0.70;99.90
38500;DHT22;24269;51.894;4.622;2022-12-18T12:53:45;-0.70;99.90
38500;DHT22;24269;51.894;4.622;2022-12-18T12:56:14;-0.70;99.90
38500;DHT22;24269;51.894;4.622;2022-12-18T12:59:10;-0.70;99.90
38500;DHT22;24269;51.894;4.622;2022-12-18T13:04:42;-0.70;99.90
38500;DHT22;24269;51.894;4.622;2022-12-18T13:07:28;-0.70;99.90
38500;DHT22;24269;51.894;4.622;2022-12-18T13:10:24;-0.60;99.90
38500;DHT22;24269;51.894;4.622;2022-12-18T13:20:44;-0.50;99.90
38500;DHT22;24269;51.894;4.622;2022-12-18T13:25:59;-0.50;99.90
38500;DHT22;24269;51.894;4.622;2022-12-18T13:31:09;-0.40;99.90
38500;DHT22;24269;51.894;4.622;2022-12-18T13:33:40;-0.40;99.90
38500;DHT22;24269;51.894;4.622;2022-12-18T13:38:41;-0.40;99.90
38500;DHT22;24269;51.894;4.622;2022-12-18T13:43:44;-0.40;99.90
38500;DHT22;24269;51.894;4.622;2022-12-18T13:46:24;-0.40;99.90
38500;DHT22;24269;51.894;4.622;2022-12-18T13:48:58;-0.40;99.90
38500;DHT22;24269;51.894;4.622;2022-12-18T13:51:26;-0.40;99.90
38500;DHT22;24269;51.894;4.622;2022-12-18T13:54:17;-0.40;99.90
38500;DHT22;24269;51.894;4.622;2022-12-18T13:56:46;-0.40;99.90
38500;DHT22;24269;51.894;4.622;2022-12-18T13:59:18;-0.40;99.90
38500;DHT22;24269;51.894;4.622;2022-12-18T14:02:14;-0.30;99.90
38500;DHT22;24269;51.894;4.622;2022-12-18T14:04:40;-0.30;99.90
38500;DHT22;24269;51.894;4.622;2022-12-18T14:07:09;-0.30;99.90
38500;DHT22;24269;51.894;4.622;2022-12-18T14:09:41;-0.30;99.90
38500;DHT22;24269;51.894;4.622;2022-12-18T14:12:24;-0.30;99.90
38500;DHT22;24269;51.894;4.622;2022-12-18T14:17:58;-0.30;99.90
38500;DHT22;24269;51.894;4.622;2022-12-18T14:20:26;-0.30;99.90
38500;DHT22;24269;51.894;4.622;2022-12-18T14:22:52;-0.30;99.90
38500;DHT22;24269;51.894;4.622;2022-12-18T14:25:23;-0.30;99.90
38500;DHT22;24269;51.894;4.622;2022-12-18T14:28:03;-0.30;99.90
38500;DHT22;24269;51.894;4.622;2022-12-18T14:30:37;-0.30;99.90
38500;DHT22;24269;51.894;4.622;2022-12-18T14:33:11;-0.30;99.90
38500;DHT22;24269;51.894;4.622;2022-12-18T14:35:43;-0.30;99.90
38500;DHT22;24269;51.894;4.622;2022-12-18T14:41:00;-0.20;99.90
38500;DHT22;24269;51.894;4.622;2022-12-18T14:43:28;-0.20;99.90
38500;DHT22;24269;51.894;4.622;2022-12-18T14:45:55;-0.20;99.90
38500;DHT22;24269;51.894;4.622;2022-12-18T14:48:41;-0.30;99.90
38500;DHT22;24269;51.894;4.622;2022-12-18T14:53:53;-0.20;99.90
38500;DHT22;24269;51.894;4.622;2022-12-18T14:56:26;-0.20;99.90
38500;DHT22;24269;51.894;4.622;2022-12-18T14:58:58;-0.20;99.90
38500;DHT22;24269;51.894;4.622;2022-12-18T15:01:36;-0.20;99.90
38500;DHT22;24269;51.894;4.622;2022-12-18T15:04:04;-0.10;99.90
38500;DHT22;24269;51.894;4.622;2022-12-18T15:06:33;-0.20;99.90
38500;DHT22;24269;51.894;4.622;2022-12-18T15:09:03;-0.20;99.90
38500;DHT22;24269;51.894;4.622;2022-12-18T15:11:42;-0.10;99.90
38500;DHT22;24269;51.894;4.622;2022-12-18T15:14:30;-0.10;99.90
38500;DHT22;24269;51.894;4.622;2022-12-18T15:16:59;-0.10;99.90
38500;DHT22;24269;51.894;4.622;2022-12-18T15:19:38;-0.10;99.90
38500;DHT22;24269;51.894;4.622;2022-12-18T15:24:44;-0.10;99.90
38500;DHT22;24269;51.894;4.622;2022-12-18T15:27:33;-0.10;99.90
38500;DHT22;24269;51.894;4.622;2022-12-18T15:32:34;0.00;99.90
38500;DHT22;24269;51.894;4.622;2022-12-18T15:35:23;0.00;99.90
38500;DHT22;24269;51.894;4.622;2022-12-18T15:37:51;0.00;99.90
38500;DHT22;24269;51.894;4.622;2022-12-18T15:40:22;0.10;99.90
38500;DHT22;24269;51.894;4.622;2022-12-18T15:42:52;0.20;99.90
38500;DHT22;24269;51.894;4.622;2022-12-18T15:45:37;0.20;99.90
38500;DHT22;24269;51.894;4.622;2022-12-18T15:48:22;0.30;99.90
38500;DHT22;24269;51.894;4.622;2022-12-18T15:50:50;0.30;99.90
38500;DHT22;24269;51.894;4.622;2022-12-18T15:53:18;0.30;99.90
38500;DHT22;24269;51.894;4.622;2022-12-18T15:55:43;0.40;99.90
38500;DHT22;24269;51.894;4.622;2022-12-18T15:58:28;0.40;99.90
38500;DHT22;24269;51.894;4.622;2022-12-18T16:00:55;0.50;99.90
38500;DHT22;24269;51.894;4.622;2022-12-18T16:03:21;0.50;99.90
38500;DHT22;24269;51.894;4.622;2022-12-18T16:05:47;0.50;99.90
38500;DHT22;24269;51.894;4.622;2022-12-18T16:08:12;0.60;99.90
38500;DHT22;24269;51.894;4.622;2022-12-18T16:10:38;0.60;99.90
38500;DHT22;24269;51.894;4.622;2022-12-18T16:13:04;0.60;99.90
38500;DHT22;24269;51.894;4.622;2022-12-18T16:15:29;0.60;99.90
38500;DHT22;24269;51.894;4.622;2022-12-18T16:17:55;0.70;99.90
38500;DHT22;24269;51.894;4.622;2022-12-18T16:20:21;0.70;99.90
38500;DHT22;24269;51.894;4.622;2022-12-18T16:22:48;0.70;99.90
38500;DHT22;24269;51.894;4.622;2022-12-18T16:25:27;0.70;99.90
38500;DHT22;24269;51.894;4.622;2022-12-18T16:27:54;0.70;99.90
38500;DHT22;24269;51.894;4.622;2022-12-18T16:30:26;0.70;99.90
38500;DHT22;24269;51.894;4.622;2022-12-18T16:32:53;0.70;99.90
38500;DHT22;24269;51.894;4.622;2022-12-18T16:35:19;0.80;99.90
38500;DHT22;24269;51.894;4.622;2022-12-18T16:37:44;0.70;99.90
38500;DHT22;24269;51.894;4.622;2022-12-18T16:40:12;0.80;99.90
38500;DHT22;24269;51.894;4.622;2022-12-18T16:42:39;0.80;99.90
38500;DHT22;24269;51.894;4.622;2022-12-18T16:45:07;0.80;99.90
38500;DHT22;24269;51.894;4.622;2022-12-18T16:47:33;0.80;99.90
38500;DHT22;24269;51.894;4.622;2022-12-18T16:49:59;0.80;99.90
38500;DHT22;24269;51.894;4.622;2022-12-18T16:52:24;0.80;99.90
38500;DHT22;24269;51.894;4.622;2022-12-18T16:54:50;0.90;99.90
38500;DHT22;24269;51.894;4.622;2022-12-18T16:57:17;0.90;99.90
38500;DHT22;24269;51.894;4.622;2022-12-18T16:59:44;0.90;99.90
38500;DHT22;24269;51.894;4.622;2022-12-18T17:02:17;0.90;99.90
38500;DHT22;24269;51.894;4.622;2022-12-18T17:04:44;0.80;99.90
38500;DHT22;24269;51.894;4.622;2022-12-18T17:07:10;0.80;99.90
38500;DHT22;24269;51.894;4.622;2022-12-18T17:09:37;0.80;99.90
38500;DHT22;24269;51.894;4.622;2022-12-18T17:12:03;0.80;99.90
38500;DHT22;24269;51.894;4.622;2022-12-18T17:14:29;0.90;99.90
38500;DHT22;24269;51.894;4.622;2022-12-18T17:16:54;0.90;99.90
38500;DHT22;24269;51.894;4.622;2022-12-18T17:19:22;0.80;99.90
38500;DHT22;24269;51.894;4.622;2022-12-18T17:21:49;0.90;99.90
38500;DHT22;24269;51.894;4.622;2022-12-18T17:24:16;0.90;99.90
38500;DHT22;24269;51.894;4.622;2022-12-18T17:26:42;0.90;99.90
38500;DHT22;24269;51.894;4.622;2022-12-18T17:29:09;0.90;99.90
38500;DHT22;24269;51.894;4.622;2022-12-18T17:31:36;0.90;99.90
38500;DHT22;24269;51.894;4.622;2022-12-18T17:34:02;0.90;99.90
38500;DHT22;24269;51.894;4.622;2022-12-18T17:36:28;0.90;99.90